sensor_id;sensor_type;location;lat;lon;timestamp;temperature;humidity
909;DHT22;441;51.192;6.788;2022-09-17T08:02:52;19.80;99.90
909;DHT22;441;51.192;6.788;2022-09-17T08:05:19;19.70;99.90
909;DHT22;441;51.192;6.788;2022-09-17T08:07:49;19.80;99.90
909;DHT22;441;51.192;6.788;2022-09-17T08:10:16;19.70;99.90
909;DHT22;441;51.192;6.788;2022-09-17T08:12:46;19.70;99.90
909;DHT22;441;51.192;6.788;2022-09-17T08:17:42;19.80;99.90
909;DHT22;441;51.192;6.788;2022-09-17T08:20:10;19.80;99.90
909;DHT22;441;51.192;6.788;2022-09-17T08:22:37;19.80;99.90
909;DHT22;441;51.192;6.788;2022-09-17T08:25:05;19.80;99.90
909;DHT22;441;51.192;6.788;2022-09-17T08:27:32;19.80;99.90
909;DHT22;441;51.192;6.788;2022-09-17T08:29:59;19.80;99.90
909;DHT22;441;51.192;6.788;2022-09-17T08:32:28;19.80;99.90
909;DHT22;441;51.192;6.788;2022-09-17T08:34:55;19.80;99.90
909;DHT22;441;51.192;6.788;2022-09-17T08:37:24;19.80;99.90
909;DHT22;441;51.192;6.788;2022-09-17T08:39:51;19.80;99.90
909;DHT22;441;51.192;6.788;2022-09-17T08:42:23;19.80;99.90
909;DHT22;441;51.192;6.788;2022-09-17T08:44:54;19.80;99.90
909;DHT22;441;51.192;6.788;2022-09-17T08:47:24;19.80;99.90
909;DHT22;441;51.192;6.788;2022-09-17T08:49:54;19.80;99.90
909;DHT22;441;51.192;6.788;2022-09-17T08:52:54;19.80;99.90
909;DHT22;441;51.192;6.788;2022-09-17T08:55:29;19.80;99.90
909;DHT22;441;51.192;6.788;2022-09-17T08:58:06;19.80;99.90
909;DHT22;441;51.192;6.788;2022-09-17T09:00:45;19.80;99.90
909;DHT22;441;51.192;6.788;2022-09-17T09:03:24;19.80;99.90
909;DHT22;441;51.192;6.788;2022-09-17T09:05:53;19.80;99.90
909;DHT22;441;51.192;6.788;2022-09-17T09:08:27;19.80;99.90
909;DHT22;441;51.192;6.788;2022-09-17T09:10:57;19.80;99.90
909;DHT22;441;51.192;6.788;2022-09-17T09:13:26;19.80;99.90
909;DHT22;441;51.192;6.788;2022-09-17T09:15:57;19.80;99.90
909;DHT22;441;51.192;6.788;2022-09-17T09:18:28;19.80;99.90
909;DHT22;441;51.192;6.788;2022-09-17T09:21:02;19.80;99.90
909;DHT22;441;51.192;6.788;2022-09-17T09:23:42;19.80;99.90
909;DHT22;441;51.192;6.788;2022-09-17T09:26:16;19.80;99.90
909;DHT22;441;51.192;6.788;2022-09-17T09:29:03;19.80;99.90
909;DHT22;441;51.192;6.788;2022-09-17T09:31:48;19.90;99.90
909;DHT22;441;51.192;6.788;2022-09-17T09:34:17;19.90;99.90
909;DHT22;441;51.192;6.788;2022-09-17T09:36:44;19.90;99.90
909;DHT22;441;51.192;6.788;2022-09-17T09:39:17;19.90;99.90
909;DHT22;441;51.192;6.788;2022-09-17T09:41:49;19.90;99.90
909;DHT22;441;51.192;6.788;2022-09-17T09:44:18;20.00;99.90
909;DHT22;441;51.192;6.788;2022-09-17T09:47:01;20.00;99.90
909;DHT22;441;51.192;6.788;2022-09-17T09:49:41;19.90;99.90
909;DHT22;441;51.192;6.788;2022-09-17T09:52:20;20.00;99.90
909;DHT22;441;51.192;6.788;2022-09-17T09:55:10;20.00;99.90
909;DHT22;441;51.192;6.788;2022-09-17T09:57:45;20.00;99.90
909;DHT22;441;51.192;6.788;2022-09-17T10:00:27;20.00;99.90
909;DHT22;441;51.192;6.788;2022-09-17T10:03:00;20.00;99.90
909;DHT22;441;51.192;6.788;2022-09-17T10:05:29;20.00;99.90
909;DHT22;441;51.192;6.788;2022-09-17T10:07:56;20.00;99.90
909;DHT22;441;51.192;6.788;2022-09-17T10:10:24;20.00;99.90
909;DHT22;441;51.192;6.788;2022-09-17T10:13:04;20.00;99.90
909;DHT22;441;51.192;6.788;2022-09-17T10:15:32;20.00;99.90
909;DHT22;441;51.192;6.788;2022-09-17T10:18:15;20.00;99.90
909;DHT22;441;51.192;6.788;2022-09-17T10:20:53;20.00;99.90
909;DHT22;441;51.192;6.788;2022-09-17T10:23:21;20.00;99.90
909;DHT22;441;51.192;6.788;2022-09-17T10:25:50;20.00;99.90
909;DHT22;441;51.192;6.788;2022-09-17T10:28:38;20.00;99.90
909;DHT22;441;51.192;6.788;2022-09-17T10:31:09;19.90;99.90
909;DHT22;441;51.192;6.788;2022-09-17T10:33:39;20.00;99.90
909;DHT22;441;51.192;6.788;2022-09-17T10:36:08;19.90;99.90
909;DHT22;441;51.192;6.788;2022-09-17T10:38:38;20.00;99.90
909;DHT22;441;51.192;6.788;2022-09-17T10:41:12;20.00;99.90
909;DHT22;441;51.192;6.788;2022-09-17T10:43:39;19.90;99.90
909;DHT22;441;51.192;6.788;2022-09-17T10:46:09;19.90;99.90
909;DHT22;441;51.192;6.788;2022-09-17T10:48:40;20.00;99.90
909;DHT22;441;51.192;6.788;2022-09-17T10:51:09;20.00;99.90
909;DHT22;441;51.192;6.788;2022-09-17T10:56:45;20.00;99.90
909;DHT22;441;51.192;6.788;2022-09-17T10:59:37;20.00;99.90
909;DHT22;441;51.192;6.788;2022-09-17T11:02:27;20.00;99.90
909;DHT22;441;51.192;6.788;2022-09-17T11:05:01;20.00;99.90
909;DHT22;441;51.192;6.788;2022-09-17T11:07:36;20.00;99.90
909;DHT22;441;51.192;6.788;2022-09-17T11:10:12;20.00;99.90
909;DHT22;441;51.192;6.788;2022-09-17T11:12:54;20.00;99.90
909;DHT22;441;51.192;6.788;2022-09-17T11:15:32;20.00;99.90
909;DHT22;441;51.192;6.788;2022-09-17T11:18:21;20.00;99.90
909;DHT22;441;51.192;6.788;2022-09-17T11:20:57;20.00;99.90
909;DHT22;441;51.192;6.788;2022-09-17T11:26:29;20.00;99.90
909;DHT22;441;51.192;6.788;2022-09-17T11:29:07;20.00;99.90
909;DHT22;441;51.192;6.788;2022-09-17T11:31:41;20.00;99.90
909;DHT22;441;51.192;6.788;2022-09-17T11:34:28;20.00;99.90
909;DHT22;441;51.192;6.788;2022-09-17T11:37:01;20.00;99.90
909;DHT22;441;51.192;6.788;2022-09-17T11:39:34;20.00;99.90
909;DHT22;441;51.192;6.788;2022-09-17T11:42:08;20.00;99.90
909;DHT22;441;51.192;6.788;2022-09-17T11:44:41;20.00;99.90
909;DHT22;441;51.192;6.788;2022-09-17T11:47:14;20.00;99.90
909;DHT22;441;51.192;6.788;2022-09-17T11:49:47;20.00;99.90
909;DHT22;441;51.192;6.788;2022-09-17T11:52:20;20.00;99.90
909;DHT22;441;51.192;6.788;2022-09-17T11:54:54;20.00;99.90
909;DHT22;441;51.192;6.788;2022-09-17T11:57:25;20.00;99.90
909;DHT22;441;51.192;6.788;2022-09-17T11:59:58;20.00;99.90
909;DHT22;441;51.192;6.788;2022-09-17T12:02:41;20.00;99.90
909;DHT22;441;51.192;6.788;2022-09-17T12:05:13;20.00;99.90
909;DHT22;441;51.192;6.788;2022-09-17T12:07:48;20.00;99.90
909;DHT22;441;51.192;6.788;2022-09-17T12:10:33;20.00;99.90
909;DHT22;441;51.192;6.788;2022-09-17T12:13:08;20.10;99.90
909;DHT22;441;51.192;6.788;2022-09-17T12:15:39;20.10;99.90
909;DHT22;441;51.192;6.788;2022-09-17T12:18:18;20.10;99.90
909;DHT22;441;51.192;6.788;2022-09-17T12:20:49;20.10;99.90
909;DHT22;441;51.192;6.788;2022-09-17T12:23:22;20.10;99.90
909;DHT22;441;51.192;6.788;2022-09-17T12:25:59;20.10;99.90
909;DHT22;441;51.192;6.788;2022-09-17T12:28:31;20.10;99.90
909;DHT22;441;51.192;6.788;2022-09-17T12:31:07;20.20;99.90
909;DHT22;441;51.192;6.788;2022-09-17T12:33:38;20.20;99.90
909;DHT22;441;51.192;6.788;2022-09-17T12:36:14;20.20;99.90
909;DHT22;441;51.192;6.788;2022-09-17T12:41:48;20.20;99.90
909;DHT22;441;51.192;6.788;2022-09-17T12:44:41;20.30;99.90
909;DHT22;441;51.192;6.788;2022-09-17T12:47:39;20.30;99.90
909;DHT22;441;51.192;6.788;2022-09-17T12:50:18;20.30;99.90
909;DHT22;441;51.192;6.788;2022-09-17T12:52:59;20.30;99.90
909;DHT22;441;51.192;6.788;2022-09-17T12:55:38;20.30;99.90
909;DHT22;441;51.192;6.788;2022-09-17T12:58:19;20.30;99.90
909;DHT22;441;51.192;6.788;2022-09-17T13:00:54;20.30;99.90
909;DHT22;441;51.192;6.788;2022-09-17T13:03:29;20.40;99.90
909;DHT22;441;51.192;6.788;2022-09-17T13:09:34;20.30;99.90
909;DHT22;441;51.192;6.788;2022-09-17T13:12:12;20.40;99.90
909;DHT22;441;51.192;6.788;2022-09-17T13:14:54;20.40;99.90
909;DHT22;441;51.192;6.788;2022-09-17T13:17:28;20.40;99.90
909;DHT22;441;51.192;6.788;2022-09-17T13:20:02;20.40;99.90
909;DHT22;441;51.192;6.788;2022-09-17T13:22:32;20.40;99.90
909;DHT22;441;51.192;6.788;2022-09-17T13:25:10;20.40;99.90
909;DHT22;441;51.192;6.788;2022-09-17T13:27:38;20.50;99.90
909;DHT22;441;51.192;6.788;2022-09-17T13:30:07;20.50;99.90
909;DHT22;441;51.192;6.788;2022-09-17T13:32:42;20.50;99.90
909;DHT22;441;51.192;6.788;2022-09-17T13:35:48;20.50;99.90
909;DHT22;441;51.192;6.788;2022-09-17T13:38:16;20.60;99.90
909;DHT22;441;51.192;6.788;2022-09-17T13:40:46;20.60;99.90
909;DHT22;441;51.192;6.788;2022-09-17T13:43:16;20.50;99.90
909;DHT22;441;51.192;6.788;2022-09-17T13:46:07;20.60;99.90
909;DHT22;441;51.192;6.788;2022-09-17T13:48:50;20.60;99.90
909;DHT22;441;51.192;6.788;2022-09-17T13:51:46;20.60;99.90
909;DHT22;441;51.192;6.788;2022-09-17T13:54:17;20.60;99.90
909;DHT22;441;51.192;6.788;2022-09-17T13:56:49;20.60;99.90
909;DHT22;441;51.192;6.788;2022-09-17T13:59:28;20.60;99.90
909;DHT22;441;51.192;6.788;2022-09-17T14:02:00;20.60;99.90
909;DHT22;441;51.192;6.788;2022-09-17T14:07:34;20.60;99.90
909;DHT22;441;51.192;6.788;2022-09-17T14:15:59;20.60;99.90
909;DHT22;441;51.192;6.788;2022-09-17T14:18:35;20.60;99.90
909;DHT22;441;51.192;6.788;2022-09-17T14:21:13;20.60;99.90
909;DHT22;441;51.192;6.788;2022-09-17T17:33:30;20.10;97.70
909;DHT22;441;51.192;6.788;2022-09-17T17:35:58;20.10;98.30
909;DHT22;441;51.192;6.788;2022-09-17T17:38:25;20.20;98.40
909;DHT22;441;51.192;6.788;2022-09-17T17:41:01;20.20;98.20
909;DHT22;441;51.192;6.788;2022-09-17T17:43:28;20.30;98.10
909;DHT22;441;51.192;6.788;2022-09-17T17:45:56;20.30;98.00
909;DHT22;441;51.192;6.788;2022-09-17T17:48:23;20.30;97.80
909;DHT22;441;51.192;6.788;2022-09-17T17:50:51;20.40;97.70
909;DHT22;441;51.192;6.788;2022-09-17T17:53:19;20.40;97.70
909;DHT22;441;51.192;6.788;2022-09-17T17:55:55;20.40;97.60
909;DHT22;441;51.192;6.788;2022-09-17T17:58:23;20.40;97.60
909;DHT22;441;51.192;6.788;2022-09-17T18:00:50;20.40;97.60
909;DHT22;441;51.192;6.788;2022-09-17T18:03:17;20.40;97.50
909;DHT22;441;51.192;6.788;2022-09-17T18:05:51;20.40;97.50
909;DHT22;441;51.192;6.788;2022-09-17T18:08:21;20.40;97.50
909;DHT22;441;51.192;6.788;2022-09-17T18:10:52;20.50;97.60
909;DHT22;441;51.192;6.788;2022-09-17T18:13:19;20.40;97.70
909;DHT22;441;51.192;6.788;2022-09-17T18:15:50;20.40;97.90
909;DHT22;441;51.192;6.788;2022-09-17T18:18:18;20.40;98.10
909;DHT22;441;51.192;6.788;2022-09-17T18:20:45;20.40;98.00
909;DHT22;441;51.192;6.788;2022-09-17T18:23:13;20.50;98.20
909;DHT22;441;51.192;6.788;2022-09-17T18:25:41;20.50;98.30
909;DHT22;441;51.192;6.788;2022-09-17T18:28:10;20.50;98.20
909;DHT22;441;51.192;6.788;2022-09-17T18:30:38;20.50;98.20
909;DHT22;441;51.192;6.788;2022-09-17T18:33:05;20.50;98.00
909;DHT22;441;51.192;6.788;2022-09-17T18:35:35;20.50;98.10
909;DHT22;441;51.192;6.788;2022-09-17T18:38:03;20.50;98.10
909;DHT22;441;51.192;6.788;2022-09-17T18:40:33;20.50;97.90
909;DHT22;441;51.192;6.788;2022-09-17T18:43:00;20.50;97.90
909;DHT22;441;51.192;6.788;2022-09-17T18:45:26;20.50;98.10
909;DHT22;441;51.192;6.788;2022-09-17T18:47:53;20.50;98.00
909;DHT22;441;51.192;6.788;2022-09-17T18:50:20;20.50;97.90
909;DHT22;441;51.192;6.788;2022-09-17T18:52:48;20.50;97.80
909;DHT22;441;51.192;6.788;2022-09-17T18:55:15;20.50;97.70
909;DHT22;441;51.192;6.788;2022-09-17T18:57:43;20.60;97.70
909;DHT22;441;51.192;6.788;2022-09-17T19:00:14;20.60;97.70
909;DHT22;441;51.192;6.788;2022-09-17T19:02:43;20.60;97.60
909;DHT22;441;51.192;6.788;2022-09-17T19:05:10;20.50;97.60
909;DHT22;441;51.192;6.788;2022-09-17T19:07:37;20.50;97.70
909;DHT22;441;51.192;6.788;2022-09-17T19:10:05;20.50;97.70
909;DHT22;441;51.192;6.788;2022-09-17T19:12:32;20.50;97.70
909;DHT22;441;51.192;6.788;2022-09-17T19:15:00;20.50;97.80
909;DHT22;441;51.192;6.788;2022-09-17T19:17:27;20.50;97.80
909;DHT22;441;51.192;6.788;2022-09-17T19:19:54;20.50;97.70
909;DHT22;441;51.192;6.788;2022-09-17T19:22:22;20.50;97.70
909;DHT22;441;51.192;6.788;2022-09-17T19:24:49;20.50;97.50
909;DHT22;441;51.192;6.788;2022-09-17T19:27:16;20.50;97.60
909;DHT22;441;51.192;6.788;2022-09-17T19:29:43;20.50;97.50
909;DHT22;441;51.192;6.788;2022-09-17T19:32:11;20.50;97.40
909;DHT22;441;51.192;6.788;2022-09-17T19:34:39;20.50;97.30
909;DHT22;441;51.192;6.788;2022-09-17T19:37:07;20.50;97.40
909;DHT22;441;51.192;6.788;2022-09-17T19:39:34;20.60;97.30
909;DHT22;441;51.192;6.788;2022-09-17T19:42:01;20.60;97.20
909;DHT22;441;51.192;6.788;2022-09-17T19:44:28;20.60;97.20
909;DHT22;441;51.192;6.788;2022-09-17T19:46:55;20.60;97.10
909;DHT22;441;51.192;6.788;2022-09-17T19:49:24;20.60;97.00
909;DHT22;441;51.192;6.788;2022-09-17T19:51:50;20.60;96.80
909;DHT22;441;51.192;6.788;2022-09-17T19:54:17;20.60;96.90
909;DHT22;441;51.192;6.788;2022-09-17T19:56:45;20.60;96.90
909;DHT22;441;51.192;6.788;2022-09-17T19:59:12;20.60;96.70
909;DHT22;441;51.192;6.788;2022-09-17T20:01:39;20.60;96.60
909;DHT22;441;51.192;6.788;2022-09-17T20:04:06;20.60;96.60
909;DHT22;441;51.192;6.788;2022-09-17T20:06:34;20.60;96.60
909;DHT22;441;51.192;6.788;2022-09-17T20:09:02;20.60;96.60
909;DHT22;441;51.192;6.788;2022-09-17T20:11:29;20.60;96.50
909;DHT22;441;51.192;6.788;2022-09-17T20:13:57;20.60;96.50
909;DHT22;441;51.192;6.788;2022-09-17T20:16:28;20.60;96.40
909;DHT22;441;51.192;6.788;2022-09-17T20:18:55;20.60;96.40
909;DHT22;441;51.192;6.788;2022-09-17T20:21:23;20.60;96.40
909;DHT22;441;51.192;6.788;2022-09-17T20:23:52;20.60;96.20
909;DHT22;441;51.192;6.788;2022-09-17T20:26:20;20.60;96.60
909;DHT22;441;51.192;6.788;2022-09-17T20:28:49;20.60;96.60
909;DHT22;441;51.192;6.788;2022-09-17T20:31:18;20.60;96.40
909;DHT22;441;51.192;6.788;2022-09-17T20:33:45;20.60;96.30
909;DHT22;441;51.192;6.788;2022-09-17T20:36:14;20.60;96.30
909;DHT22;441;51.192;6.788;2022-09-17T20:38:42;20.70;96.60
909;DHT22;441;51.192;6.788;2022-09-17T20:41:12;20.70;96.20
909;DHT22;441;51.192;6.788;2022-09-17T20:43:41;20.60;96.20
909;DHT22;441;51.192;6.788;2022-09-17T20:46:09;20.60;96.10
909;DHT22;441;51.192;6.788;2022-09-17T20:48:38;20.60;96.10
909;DHT22;441;51.192;6.788;2022-09-17T20:51:09;20.70;96.00
909;DHT22;441;51.192;6.788;2022-09-17T20:53:36;20.60;95.90
909;DHT22;441;51.192;6.788;2022-09-17T20:56:05;20.60;96.00
909;DHT22;441;51.192;6.788;2022-09-17T20:58:35;20.60;96.00
909;DHT22;441;51.192;6.788;2022-09-17T21:01:12;20.60;95.90
909;DHT22;441;51.192;6.788;2022-09-17T21:03:40;20.60;95.70
909;DHT22;441;51.192;6.788;2022-09-17T21:06:07;20.60;95.90
909;DHT22;441;51.192;6.788;2022-09-17T21:08:40;20.60;96.10
909;DHT22;441;51.192;6.788;2022-09-17T21:11:07;20.60;96.10
909;DHT22;441;51.192;6.788;2022-09-17T21:13:36;20.60;95.90
909;DHT22;441;51.192;6.788;2022-09-17T21:16:03;20.70;95.70
909;DHT22;441;51.192;6.788;2022-09-17T21:18:30;20.70;95.40
909;DHT22;441;51.192;6.788;2022-09-17T21:21:00;20.70;95.30
909;DHT22;441;51.192;6.788;2022-09-17T21:23:28;20.70;95.50
909;DHT22;441;51.192;6.788;2022-09-17T21:26:01;20.70;95.80
909;DHT22;441;51.192;6.788;2022-09-17T21:28:31;20.60;96.30
909;DHT22;441;51.192;6.788;2022-09-17T21:31:05;20.60;96.60
909;DHT22;441;51.192;6.788;2022-09-17T21:33:33;20.60;96.80
909;DHT22;441;51.192;6.788;2022-09-17T21:36:05;20.70;97.00
909;DHT22;441;51.192;6.788;2022-09-17T21:38:32;20.70;97.20
909;DHT22;441;51.192;6.788;2022-09-17T21:41:01;20.70;97.50
909;DHT22;441;51.192;6.788;2022-09-17T21:43:29;20.70;97.60
